Time;durP1;ratioP1;P1;durP2;ratioP2;P2;SDS_P1;SDS_P2;PMS_P1;PMS_P2;Temp;Humidity;BMP_temperature;BMP_pressure;BME280_temperature;BME280_humidity;BME280_pressure;Samples;Min_cycle;Max_cycle;Signal;HPM_P1;HPM_P2
2023/04/06 00:01:48;;;;;;;11.63;6.73;;;0.80;99.90;;;;;;6285524;22;20027;-89
2023/04/06 00:04:32;;;;;;;11.83;6.70;;;0.60;99.90;;;;;;6277390;22;20022;-88
2023/04/06 00:07:01;;;;;;;13.27;7.23;;;0.80;99.90;;;;;;6273819;22;20016;-88
2023/04/06 00:09:26;;;;;;;13.10;7.20;;;0.60;99.90;;;;;;6275070;22;20090;-88
2023/04/06 00:11:52;;;;;;;14.77;7.40;;;0.50;99.90;;;;;;6275193;22;20026;-88
2023/04/06 00:14:18;;;;;;;13.67;7.00;;;0.60;99.90;;;;;;6275668;22;20137;-89
2023/04/06 00:16:43;;;;;;;13.80;7.10;;;0.60;99.90;;;;;;6275288;22;20055;-88
2023/04/06 00:19:09;;;;;;;12.80;6.90;;;0.50;99.90;;;;;;6275022;22;20016;-88
2023/04/06 00:21:35;;;;;;;13.10;7.23;;;0.50;99.90;;;;;;6275636;22;20031;-88
2023/04/06 00:24:07;;;;;;;14.43;7.60;;;0.30;99.90;;;;;;6274208;22;20008;-88
2023/04/06 00:26:48;;;;;;;13.57;7.27;;;0.40;99.90;;;;;;6274200;22;20075;-88
2023/04/06 00:29:13;;;;;;;14.13;7.20;;;-0.20;99.90;;;;;;6275629;22;20083;-88
2023/04/06 00:31:39;;;;;;;13.10;7.57;;;0.30;99.90;;;;;;6274478;22;20407;-88
2023/04/06 00:34:20;;;;;;;14.80;7.57;;;0.40;99.90;;;;;;6274932;22;20435;-88
2023/04/06 00:36:58;;;;;;;12.73;6.67;;;0.20;99.90;;;;;;6276757;22;20012;-88
2023/04/06 00:39:23;;;;;;;12.97;7.10;;;0.10;99.90;;;;;;6277067;22;20039;-88
2023/04/06 00:41:52;;;;;;;13.60;7.07;;;0.20;99.90;;;;;;6276194;22;20320;-88
2023/04/06 00:44:18;;;;;;;14.00;7.30;;;0.30;99.90;;;;;;6276436;22;20043;-88
2023/04/06 00:46:56;;;;;;;13.20;7.07;;;0.20;99.90;;;;;;6273662;22;20034;-88
2023/04/06 00:49:21;;;;;;;14.03;7.17;;;0.00;99.90;;;;;;6276055;22;20439;-88
2023/04/06 00:51:47;;;;;;;12.40;7.47;;;0.10;99.90;;;;;;6280835;22;20015;-88
2023/04/06 00:54:13;;;;;;;14.83;6.63;;;0.10;99.90;;;;;;6277190;22;20070;-88
2023/04/06 00:56:38;;;;;;;13.37;7.13;;;1.10;99.90;;;;;;6277986;22;20015;-89
2023/04/06 00:59:04;;;;;;;14.47;7.70;;;0.00;99.90;;;;;;6281629;22;20023;-88
2023/04/06 01:01:32;;;;;;;13.30;7.33;;;-0.10;99.90;;;;;;6278813;22;20015;-88
2023/04/06 01:03:58;;;;;;;13.93;7.30;;;-0.10;99.90;;;;;;6276655;22;20011;-88
2023/04/06 01:06:24;;;;;;;13.93;7.27;;;-0.10;99.90;;;;;;6278890;22;20039;-88
2023/04/06 01:08:50;;;;;;;14.63;7.50;;;-0.10;99.90;;;;;;6278434;22;20046;-88
2023/04/06 01:11:17;;;;;;;13.57;7.43;;;-0.10;99.90;;;;;;6276285;22;20069;-88
2023/04/06 01:13:42;;;;;;;13.27;7.77;;;-0.20;99.90;;;;;;6282163;22;20015;-88
2023/04/06 01:16:09;;;;;;;12.73;7.27;;;-0.20;99.90;;;;;;6276032;22;20380;-89
2023/04/06 01:18:35;;;;;;;13.70;7.57;;;-0.20;99.90;;;;;;6276610;22;20011;-89
2023/04/06 01:21:01;;;;;;;14.20;7.30;;;-0.30;99.90;;;;;;6277516;22;20455;-88
2023/04/06 01:23:27;;;;;;;16.37;7.90;;;-0.30;99.90;;;;;;6277332;22;20091;-89
2023/04/06 01:25:52;;;;;;;13.23;7.80;;;-0.30;99.90;;;;;;6277953;22;20016;-88
2023/04/06 01:28:30;;;;;;;13.90;7.50;;;-0.30;99.90;;;;;;6275974;22;20016;-88
2023/04/06 01:30:56;;;;;;;14.77;7.50;;;-0.60;99.90;;;;;;6275565;22;20369;-87
2023/04/06 01:33:33;;;;;;;13.33;7.53;;;-0.40;99.90;;;;;;6285191;22;20047;-89
2023/04/06 01:36:00;;;;;;;13.27;7.20;;;-0.70;99.90;;;;;;6284883;22;20037;-88
2023/04/06 01:38:43;;;;;;;16.70;7.70;;;-0.70;99.90;;;;;;6277467;22;20011;-88
2023/04/06 01:41:09;;;;;;;13.43;7.43;;;0.90;99.90;;;;;;6276261;22;20019;-88
2023/04/06 01:43:35;;;;;;;15.33;7.80;;;-0.70;99.90;;;;;;6277976;22;20012;-88
2023/04/06 01:46:01;;;;;;;17.90;8.03;;;-0.50;99.90;;;;;;6275029;22;20107;-88
2023/04/06 01:48:45;;;;;;;13.45;7.80;;;-0.50;99.90;;;;;;6276291;22;20020;-88
2023/04/06 01:51:26;;;;;;;14.93;8.00;;;-0.80;99.90;;;;;;6275014;22;20012;-88
2023/04/06 01:53:52;;;;;;;14.23;8.10;;;-0.80;99.90;;;;;;6277987;22;20016;-88
2023/04/06 01:56:26;;;;;;;16.40;8.10;;;-0.70;99.90;;;;;;6277489;22;20050;-88
2023/04/06 01:59:06;;;;;;;13.33;7.43;;;0.30;99.90;;;;;;6275671;22;20016;-88
2023/04/06 02:01:41;;;;;;;14.60;7.90;;;-0.90;99.90;;;;;;6275883;22;20042;-88
2023/04/06 02:04:07;;;;;;;14.00;7.47;;;-0.70;99.90;;;;;;6275485;22;20012;-88
2023/04/06 02:06:47;;;;;;;15.07;7.87;;;0.70;99.90;;;;;;6274269;22;20439;-87
2023/04/06 02:09:14;;;;;;;15.43;8.03;;;-0.20;99.90;;;;;;6277629;22;20061;-88
2023/04/06 02:11:40;;;;;;;15.67;8.07;;;-0.80;99.90;;;;;;6275826;22;20065;-88
2023/04/06 02:14:12;;;;;;;14.80;7.90;;;-0.80;99.90;;;;;;6274920;22;20378;-88
2023/04/06 02:16:37;;;;;;;14.90;7.70;;;-1.00;99.90;;;;;;6278016;22;20012;-88
2023/04/06 02:19:03;;;;;;;14.47;7.93;;;-0.70;99.90;;;;;;6275421;22;20022;-88
2023/04/06 02:21:28;;;;;;;14.43;7.63;;;-0.80;99.90;;;;;;6278239;22;20018;-88
2023/04/06 02:23:57;;;;;;;15.20;7.53;;;-0.80;99.90;;;;;;6278720;22;20039;-88
2023/04/06 02:26:23;;;;;;;13.43;7.47;;;-0.80;99.90;;;;;;6277050;22;20027;-88
2023/04/06 02:28:48;;;;;;;13.60;7.50;;;-0.80;99.90;;;;;;6281315;22;20008;-87
2023/04/06 02:31:15;;;;;;;15.37;8.23;;;-0.80;99.90;;;;;;6277799;22;20025;-88
2023/04/06 02:33:40;;;;;;;13.87;7.93;;;-0.50;99.90;;;;;;6275308;22;20011;-88
2023/04/06 02:36:06;;;;;;;15.43;8.10;;;-0.90;99.90;;;;;;6276882;22;20020;-88
2023/04/06 02:38:32;;;;;;;14.87;7.97;;;-0.90;99.90;;;;;;6275558;22;20009;-88
2023/04/06 02:40:58;;;;;;;14.90;8.23;;;-0.90;99.90;;;;;;6273959;22;20439;-88
2023/04/06 02:43:23;;;;;;;14.17;7.77;;;-1.00;99.90;;;;;;6275693;22;20098;-89
2023/04/06 02:45:49;;;;;;;15.70;8.40;;;-1.00;99.90;;;;;;6277057;22;20034;-88
2023/04/06 02:48:15;;;;;;;16.27;8.43;;;-1.00;99.90;;;;;;6276367;22;20023;-88
2023/04/06 02:50:40;;;;;;;17.30;8.83;;;-1.00;99.90;;;;;;6277198;22;20068;-88
2023/04/06 02:53:06;;;;;;;14.27;8.57;;;-1.00;99.90;;;;;;6277022;22;20019;-88
2023/04/06 02:55:31;;;;;;;16.33;8.47;;;-1.00;99.90;;;;;;6276393;22;20016;-88
2023/04/06 02:57:57;;;;;;;14.40;8.13;;;-1.00;99.90;;;;;;6277008;22;20012;-88
2023/04/06 03:00:22;;;;;;;15.37;8.17;;;-1.00;99.90;;;;;;6275049;22;20317;-89
2023/04/06 03:02:48;;;;;;;13.83;7.63;;;-1.10;99.90;;;;;;6274529;22;20011;-89
2023/04/06 03:05:14;;;;;;;15.80;8.40;;;-1.10;99.90;;;;;;6277285;22;20320;-89
2023/04/06 03:07:40;;;;;;;15.27;8.73;;;-0.50;99.90;;;;;;6293764;22;20030;-89
2023/04/06 03:10:05;;;;;;;15.83;8.73;;;-1.20;99.90;;;;;;6277581;22;20327;-89
2023/04/06 03:12:31;;;;;;;14.57;8.30;;;-1.20;99.90;;;;;;6276498;22;20023;-88
2023/04/06 03:14:57;;;;;;;17.47;8.60;;;-1.30;99.90;;;;;;6274709;22;20008;-89
2023/04/06 03:17:22;;;;;;;15.13;8.37;;;-1.30;99.90;;;;;;6276672;22;20069;-88
2023/04/06 03:19:48;;;;;;;14.37;8.23;;;-1.20;99.90;;;;;;6275260;22;20385;-88
2023/04/06 03:22:13;;;;;;;15.63;8.23;;;-1.30;99.90;;;;;;6274165;22;20015;-89
2023/04/06 03:24:39;;;;;;;15.80;8.43;;;-1.30;99.90;;;;;;6275898;22;20320;-88
2023/04/06 03:27:06;;;;;;;15.50;8.83;;;-1.40;99.90;;;;;;6276298;22;20015;-88
2023/04/06 03:29:31;;;;;;;15.87;8.90;;;-1.40;99.90;;;;;;6276334;22;20451;-88
2023/04/06 03:31:57;;;;;;;16.70;8.70;;;-1.30;99.90;;;;;;6273841;22;20090;-89
2023/04/06 03:34:22;;;;;;;14.63;7.60;;;-1.40;99.90;;;;;;6274942;22;20055;-88
2023/04/06 03:36:48;;;;;;;14.97;8.57;;;-1.40;99.90;;;;;;6274569;22;20091;-89
2023/04/06 03:39:14;;;;;;;16.67;9.00;;;-1.50;99.90;;;;;;6276156;22;20395;-88
2023/04/06 03:41:39;;;;;;;15.20;8.67;;;-1.50;99.90;;;;;;6275149;22;20022;-88
2023/04/06 03:44:05;;;;;;;16.33;8.53;;;-1.50;99.90;;;;;;6275626;22;20022;-88
2023/04/06 03:46:31;;;;;;;15.47;9.33;;;-1.50;99.90;;;;;;6275223;22;20023;-88
2023/04/06 03:48:57;;;;;;;17.03;9.27;;;-1.50;99.90;;;;;;6274908;22;20008;-88
2023/04/06 03:51:22;;;;;;;15.23;8.83;;;-1.40;99.90;;;;;;6279061;22;20444;-88
2023/04/06 03:53:48;;;;;;;17.20;9.17;;;-1.50;99.90;;;;;;6275774;22;20016;-87
2023/04/06 03:56:14;;;;;;;15.27;8.80;;;-1.40;99.90;;;;;;6274783;22;20065;-88
2023/04/06 03:58:40;;;;;;;18.43;9.13;;;-1.40;99.90;;;;;;6277408;22;20095;-87
2023/04/06 04:01:05;;;;;;;18.17;8.83;;;-1.30;99.90;;;;;;6275091;22;20043;-88
2023/04/06 04:03:31;;;;;;;15.87;8.77;;;-1.40;99.90;;;;;;6276732;22;20034;-88
2023/04/06 04:05:56;;;;;;;17.53;8.70;;;-1.30;99.90;;;;;;6273420;22;20016;-88
2023/04/06 04:08:23;;;;;;;15.93;8.97;;;-1.30;99.90;;;;;;6275993;22;20371;-88
2023/04/06 04:10:48;;;;;;;17.07;9.07;;;-1.30;99.90;;;;;;6278383;22;20378;-88
2023/04/06 04:13:14;;;;;;;17.03;9.00;;;-1.40;99.90;;;;;;6279107;22;20026;-87
2023/04/06 04:15:39;;;;;;;16.87;8.90;;;-1.40;99.90;;;;;;6274746;22;20473;-87
2023/04/06 04:18:05;;;;;;;15.53;8.60;;;-1.40;99.90;;;;;;6274693;22;20016;-88
2023/04/06 04:20:31;;;;;;;15.60;8.73;;;-1.50;99.90;;;;;;6275556;22;20008;-88
2023/04/06 04:22:56;;;;;;;15.83;9.70;;;-1.50;99.90;;;;;;6274511;22;20020;-88
2023/04/06 04:25:23;;;;;;;15.13;9.07;;;-1.60;99.90;;;;;;6274689;22;20035;-88
2023/04/06 04:27:48;;;;;;;14.57;8.53;;;-1.60;99.90;;;;;;6274539;22;20099;-87
2023/04/06 04:30:15;;;;;;;17.90;9.27;;;-1.60;99.90;;;;;;6276228;22;20838;-88
2023/04/06 04:32:40;;;;;;;16.10;8.83;;;-1.60;99.90;;;;;;6277762;22;20066;-88
2023/04/06 04:35:06;;;;;;;16.93;9.47;;;-1.70;99.90;;;;;;6273715;22;20012;-88
2023/04/06 04:37:34;;;;;;;19.53;9.23;;;-1.70;99.90;;;;;;6274199;22;20016;-87
2023/04/06 04:40:01;;;;;;;15.87;9.00;;;-1.70;99.90;;;;;;6277291;22;20016;-87
2023/04/06 04:42:27;;;;;;;16.53;9.33;;;-1.70;99.90;;;;;;6280552;22;20394;-89
2023/04/06 04:44:52;;;;;;;17.47;9.23;;;-1.50;99.90;;;;;;6276974;22;20037;-88
2023/04/06 04:47:19;;;;;;;17.30;9.17;;;-1.70;99.90;;;;;;6273626;22;20015;-88
2023/04/06 04:52:30;;;;;;;18.83;9.47;;;-1.70;99.90;;;;;;6275371;22;20106;-88
2023/04/06 04:55:14;;;;;;;16.07;9.57;;;-1.70;99.90;;;;;;6276000;22;20039;-88
2023/04/06 04:57:39;;;;;;;19.30;9.95;;;-1.70;99.90;;;;;;6275170;22;20015;-87
2023/04/06 05:00:39;;;;;;;18.23;10.50;;;-1.90;99.90;;;;;;6276141;22;20054;-87
2023/04/06 05:03:05;;;;;;;16.53;8.73;;;-1.00;99.90;;;;;;6274118;22;20022;-87
2023/04/06 05:05:31;;;;;;;17.77;9.97;;;-1.90;99.90;;;;;;6276460;22;20015;-88
2023/04/06 05:08:17;;;;;;;16.90;9.80;;;-1.70;99.90;;;;;;6275827;22;20083;-88
2023/04/06 05:10:44;;;;;;;16.37;10.10;;;-0.20;99.90;;;;;;6274780;22;20049;-87
2023/04/06 05:13:10;;;;;;;19.23;9.70;;;-1.80;99.90;;;;;;6276118;22;20019;-87
2023/04/06 05:15:40;;;;;;;18.63;10.10;;;-1.60;99.90;;;;;;6275922;22;20460;-88
2023/04/06 05:18:17;;;;;;;18.07;9.70;;;-1.50;99.90;;;;;;6275228;22;20455;-88
2023/04/06 05:20:43;;;;;;;20.00;10.40;;;-1.50;99.90;;;;;;6275047;22;20012;-88
2023/04/06 05:23:30;;;;;;;16.90;9.67;;;-1.70;99.90;;;;;;6274952;22;20090;-88
2023/04/06 05:25:55;;;;;;;20.33;10.37;;;-0.60;99.90;;;;;;6276338;22;20012;-88
2023/04/06 05:28:33;;;;;;;20.40;10.27;;;-1.70;99.90;;;;;;6276308;22;20439;-87
2023/04/06 05:30:59;;;;;;;18.23;9.33;;;-1.50;99.90;;;;;;6278101;22;20016;-87
2023/04/06 05:33:26;;;;;;;18.70;10.10;;;-1.50;99.90;;;;;;6276786;22;20526;-88
2023/04/06 05:35:51;;;;;;;22.23;11.33;;;-1.30;99.90;;;;;;6276278;22;20461;-87
2023/04/06 05:38:17;;;;;;;17.57;10.53;;;-1.20;99.90;;;;;;6275398;22;20018;-87
2023/04/06 05:40:42;;;;;;;16.87;9.90;;;-1.10;99.90;;;;;;6276134;22;20022;-88
2023/04/06 05:43:08;;;;;;;20.17;10.37;;;-1.10;99.90;;;;;;6277519;22;20077;-87
2023/04/06 05:45:34;;;;;;;19.30;10.40;;;-1.00;99.90;;;;;;6277121;22;20016;-88
2023/04/06 05:48:01;;;;;;;18.40;10.50;;;-1.00;99.90;;;;;;6275712;22;20041;-88
2023/04/06 05:50:26;;;;;;;19.07;9.67;;;-1.00;99.90;;;;;;6277439;22;20016;-87
2023/04/06 05:52:52;;;;;;;19.20;10.17;;;-0.80;99.90;;;;;;6275435;22;20023;-88
2023/04/06 05:55:17;;;;;;;19.40;10.17;;;-0.70;99.90;;;;;;6275890;22;20016;-88
2023/04/06 05:57:43;;;;;;;18.73;10.40;;;0.70;99.90;;;;;;6277339;22;20335;-88
2023/04/06 06:00:10;;;;;;;20.93;10.13;;;-0.60;99.90;;;;;;6275781;22;20018;-87
2023/04/06 06:02:36;;;;;;;20.33;10.40;;;-0.40;99.90;;;;;;6276070;22;20043;-88
2023/04/06 06:05:02;;;;;;;18.07;9.90;;;-0.40;99.90;;;;;;6274467;22;20019;-88
2023/04/06 06:07:27;;;;;;;18.50;10.67;;;-0.30;99.90;;;;;;6275919;22;20122;-88
2023/04/06 06:09:57;;;;;;;16.47;9.53;;;-0.20;99.90;;;;;;6278253;22;20008;-89
2023/04/06 06:12:22;;;;;;;20.00;10.63;;;-0.20;99.90;;;;;;6275507;22;20016;-88
2023/04/06 06:14:48;;;;;;;18.47;10.50;;;-0.10;99.90;;;;;;6277622;22;20012;-88
2023/04/06 06:17:15;;;;;;;19.13;10.83;;;0.00;99.90;;;;;;6288042;22;20342;-89
2023/04/06 06:19:40;;;;;;;18.60;10.47;;;0.10;99.90;;;;;;6279685;22;20151;-88
2023/04/06 06:22:06;;;;;;;18.20;10.07;;;0.20;99.90;;;;;;6277546;22;20447;-88
2023/04/06 06:24:32;;;;;;;17.77;10.07;;;0.30;99.90;;;;;;6279536;22;20016;-88
2023/04/06 06:26:58;;;;;;;18.67;10.30;;;0.30;99.90;;;;;;6277086;22;20097;-88
2023/04/06 06:29:24;;;;;;;18.47;10.20;;;0.50;99.90;;;;;;6278025;22;20016;-88
2023/04/06 06:31:49;;;;;;;20.20;11.10;;;0.50;99.90;;;;;;6276841;22;20016;-88
2023/04/06 06:34:15;;;;;;;18.57;10.67;;;0.60;99.90;;;;;;6276215;22;20051;-88
2023/04/06 06:36:41;;;;;;;17.70;10.17;;;0.70;99.90;;;;;;6277556;22;20071;-88
2023/04/06 06:39:06;;;;;;;18.73;10.60;;;0.90;99.90;;;;;;6301063;22;20351;-88
2023/04/06 06:41:32;;;;;;;19.50;11.07;;;1.00;99.90;;;;;;6274939;22;20012;-88
2023/04/06 06:43:57;;;;;;;17.87;10.53;;;1.10;99.90;;;;;;6275443;22;20054;-88
2023/04/06 06:46:23;;;;;;;18.77;10.90;;;1.20;99.90;;;;;;6277276;22;20016;-88
2023/04/06 06:48:48;;;;;;;17.07;10.53;;;1.30;99.90;;;;;;6276731;22;20008;-88
2023/04/06 06:51:32;;;;;;;20.20;11.20;;;1.40;99.90;;;;;;6282540;22;20047;-95
2023/04/06 06:53:57;;;;;;;19.77;10.77;;;2.90;99.90;;;;;;6275285;22;20016;-85
2023/04/06 06:56:36;;;;;;;18.90;11.37;;;1.60;99.90;;;;;;6276686;22;20023;-87
2023/04/06 06:59:02;;;;;;;18.67;10.37;;;2.80;99.90;;;;;;6277230;22;20015;-85
2023/04/06 07:01:28;;;;;;;18.77;10.87;;;1.70;99.90;;;;;;6278230;22;20435;-85
2023/04/06 07:03:53;;;;;;;19.60;11.63;;;2.00;99.90;;;;;;6277532;22;20023;-85
2023/04/06 07:06:19;;;;;;;18.63;11.30;;;3.60;99.90;;;;;;6274860;22;20022;-84
2023/04/06 07:08:45;;;;;;;23.20;10.70;;;2.30;99.90;;;;;;6275277;22;20331;-85
2023/04/06 07:11:10;;;;;;;20.97;11.00;;;2.50;99.90;;;;;;6277129;22;20026;-86
2023/04/06 07:13:36;;;;;;;18.40;10.93;;;2.50;99.90;;;;;;6275668;22;20012;-86
2023/04/06 07:16:01;;;;;;;19.50;11.27;;;2.60;99.90;;;;;;6276258;22;20021;-86
2023/04/06 07:18:27;;;;;;;19.23;10.83;;;2.70;99.90;;;;;;6275366;22;20462;-86
2023/04/06 07:23:57;;;;;;;20.52;11.10;;;2.40;99.90;;;;;;6274146;22;20372;-87
2023/04/06 07:26:22;;;;;;;21.33;11.43;;;4.40;99.90;;;;;;6276938;22;20023;-87
2023/04/06 07:28:48;;;;;;;17.57;10.43;;;3.20;99.90;;;;;;6274848;22;20444;-86
2023/04/06 07:31:13;;;;;;;20.70;11.63;;;3.40;99.90;;;;;;6275636;22;20031;-86
2023/04/06 07:33:39;;;;;;;18.57;11.00;;;3.50;99.90;;;;;;6277780;22;20011;-86
2023/04/06 07:36:05;;;;;;;17.73;11.10;;;3.60;99.90;;;;;;6274571;22;20019;-87
2023/04/06 07:38:31;;;;;;;19.43;11.10;;;4.70;99.90;;;;;;6275454;22;20473;-86
2023/04/06 07:40:56;;;;;;;18.97;10.63;;;3.90;99.90;;;;;;6276469;22;20379;-86
2023/04/06 07:43:22;;;;;;;17.47;11.03;;;4.00;99.90;;;;;;6274391;22;20070;-85
2023/04/06 07:45:47;;;;;;;21.80;10.90;;;4.10;99.90;;;;;;6276544;22;20016;-86
2023/04/06 07:48:13;;;;;;;18.23;10.30;;;4.30;99.90;;;;;;6281075;22;20023;-87
2023/04/06 07:50:39;;;;;;;19.03;10.83;;;4.40;99.90;;;;;;6286524;22;20331;-86
2023/04/06 07:53:05;;;;;;;18.50;10.17;;;4.50;99.90;;;;;;6300656;22;20094;-86
2023/04/06 07:55:30;;;;;;;19.23;10.67;;;5.90;99.90;;;;;;6276483;22;20034;-85
2023/04/06 07:57:56;;;;;;;18.13;10.90;;;4.70;99.90;;;;;;6273728;22;20016;-86
2023/04/06 08:00:22;;;;;;;18.53;10.53;;;4.80;99.90;;;;;;6274552;22;20019;-85
2023/04/06 08:02:47;;;;;;;21.90;11.63;;;4.90;99.90;;;;;;6276948;22;20090;-86
2023/04/06 08:05:13;;;;;;;19.10;10.70;;;5.10;99.90;;;;;;6274159;22;20016;-87
2023/04/06 08:07:39;;;;;;;18.67;10.10;;;5.20;99.90;;;;;;6273425;22;20015;-86
2023/04/06 08:10:05;;;;;;;19.37;10.10;;;5.40;99.90;;;;;;6276389;22;20454;-86
2023/04/06 08:12:32;;;;;;;19.80;10.73;;;5.50;99.90;;;;;;6273596;22;20023;-86
2023/04/06 08:14:58;;;;;;;18.93;9.73;;;5.60;99.90;;;;;;6275895;22;20007;-86
2023/04/06 08:17:24;;;;;;;17.13;9.60;;;5.80;99.90;;;;;;6272959;22;20037;-87
2023/04/06 08:19:49;;;;;;;19.77;10.70;;;6.90;99.90;;;;;;6273781;22;20015;-87
2023/04/06 08:22:15;;;;;;;18.43;9.77;;;6.20;99.90;;;;;;6273988;22;20157;-86
2023/04/06 08:24:40;;;;;;;17.43;9.83;;;6.90;99.90;;;;;;6276043;22;20012;-86
2023/04/06 08:27:07;;;;;;;20.90;10.40;;;6.50;99.90;;;;;;6274640;22;20458;-82
2023/04/06 08:29:33;;;;;;;17.27;10.37;;;6.60;99.90;;;;;;6275962;22;20008;-82
2023/04/06 08:31:58;;;;;;;17.57;9.57;;;6.70;99.90;;;;;;6276022;22;20090;-83
2023/04/06 08:34:24;;;;;;;15.73;9.97;;;6.90;99.90;;;;;;6276370;22;20020;-85
2023/04/06 08:36:50;;;;;;;17.33;9.40;;;7.00;99.90;;;;;;6296417;22;20026;-87
2023/04/06 08:39:15;;;;;;;17.87;10.07;;;7.10;99.90;;;;;;6277654;22;20061;-86
2023/04/06 08:41:44;;;;;;;17.10;9.50;;;7.20;99.90;;;;;;6274002;22;20081;-86
2023/04/06 08:44:13;;;;;;;15.73;9.60;;;7.30;99.90;;;;;;6274230;22;20015;-86
2023/04/06 08:46:50;;;;;;;16.67;10.25;;;7.40;99.90;;;;;;6211160;23;20051;-87
2023/04/06 08:49:28;;;;;;;17.90;10.13;;;7.20;99.90;;;;;;6186940;23;20112;-86
2023/04/06 08:51:55;;;;;;;16.95;9.90;;;7.80;99.90;;;;;;6211813;23;20028;-90
2023/04/06 08:54:24;;;;;;;17.48;10.27;;;7.80;99.90;;;;;;6211481;23;20012;-87
2023/04/06 08:56:50;;;;;;;19.20;9.90;;;9.40;99.90;;;;;;6214676;23;20023;-88
2023/04/06 08:59:24;;;;;;;18.85;10.65;;;8.30;99.90;;;;;;6185573;23;20017;-88
2023/04/06 09:01:51;;;;;;;;;;;8.40;99.90;;;;;;6210846;23;20017;-87
2023/04/06 09:04:26;;;;;;;19.38;10.30;;;8.50;99.90;;;;;;6186758;23;19924;-88
2023/04/06 09:06:52;;;;;;;16.02;10.00;;;8.70;99.90;;;;;;6184528;23;20020;-87
2023/04/06 09:09:18;;;;;;;17.43;10.30;;;9.40;99.90;;;;;;6212895;23;20027;-88
2023/04/06 09:11:51;;;;;;;16.13;9.97;;;8.80;99.90;;;;;;6188751;23;20626;-88
2023/04/06 09:14:37;;;;;;;18.95;10.10;;;8.70;99.90;;;;;;6213056;23;20016;-87
2023/04/06 09:17:03;;;;;;;16.40;9.80;;;9.40;99.90;;;;;;6210212;22;20073;-88
2023/04/06 09:19:29;;;;;;;19.23;10.57;;;10.20;99.90;;;;;;6287143;22;20382;-87
2023/04/06 09:22:06;;;;;;;18.07;10.53;;;10.50;99.90;;;;;;6277484;22;20076;-88
2023/04/06 09:24:41;;;;;;;16.75;10.23;;;9.60;99.90;;;;;;6279264;22;20023;-88
2023/04/06 09:27:07;;;;;;;18.10;10.40;;;11.00;99.90;;;;;;6277369;22;20020;-87
2023/04/06 09:29:33;;;;;;;17.87;10.37;;;10.60;99.90;;;;;;6276743;22;20336;-87
2023/04/06 09:32:06;;;;;;;16.90;10.23;;;10.00;99.90;;;;;;6275162;22;20077;-88
2023/04/06 09:34:41;;;;;;;17.60;10.00;;;10.20;99.90;;;;;;6275893;22;20011;-88
2023/04/06 09:37:18;;;;;;;18.25;10.00;;;10.30;99.90;;;;;;6277260;22;20015;-87
2023/04/06 09:39:51;;;;;;;18.02;10.63;;;10.40;99.90;;;;;;6276203;22;20024;-87
2023/04/06 09:42:24;;;;;;;18.33;10.40;;;10.80;99.90;;;;;;6274671;22;20020;-88
2023/04/06 09:44:50;;;;;;;19.45;10.80;;;10.90;99.90;;;;;;6275293;22;20015;-90
2023/04/06 09:47:19;;;;;;;17.58;10.88;;;11.60;99.90;;;;;;6276360;22;20035;-90
2023/04/06 09:49:58;;;;;;;19.10;10.95;;;12.50;99.90;;;;;;6276099;22;20023;-89
2023/04/06 09:52:39;;;;;;;19.58;11.50;;;11.90;99.10;;;;;;6279345;22;20108;-90
2023/04/06 09:55:40;;;;;;;21.02;11.23;;;10.90;99.90;;;;;;6276394;22;20016;-88
2023/04/06 09:58:09;;;;;;;19.00;11.20;;;12.00;99.90;;;;;;6276103;22;20447;-88
2023/04/06 10:01:03;;;;;;;19.83;12.65;;;12.30;99.90;;;;;;6289019;22;20018;-87
2023/04/06 10:03:38;;;;;;;20.58;12.10;;;11.30;99.90;;;;;;6278845;22;20104;-88
2023/04/06 10:06:13;;;;;;;20.33;12.52;;;11.40;99.90;;;;;;6276700;22;20015;-87
2023/04/06 10:08:41;;;;;;;22.52;13.68;;;11.40;99.90;;;;;;6284398;22;20095;-88
2023/04/06 10:11:11;;;;;;;21.20;13.07;;;12.20;99.90;;;;;;6290944;22;20016;-89
2023/04/06 10:13:40;;;;;;;21.58;13.23;;;11.40;99.90;;;;;;6283663;22;20016;-88
2023/04/06 10:16:07;;;;;;;22.70;14.23;;;11.50;99.90;;;;;;6278455;22;20073;-88
2023/04/06 10:18:33;;;;;;;22.15;13.40;;;11.40;99.90;;;;;;6277577;22;20015;-88
2023/04/06 10:21:20;;;;;;;22.45;14.05;;;11.30;99.90;;;;;;6275766;22;20335;-88
2023/04/06 10:23:56;;;;;;;22.75;14.70;;;11.60;98.80;;;;;;6275054;22;20031;-92
2023/04/06 10:26:22;;;;;;;22.08;14.40;;;11.30;97.70;;;;;;6275368;22;20474;-87
2023/04/06 10:28:49;;;;;;;23.98;13.98;;;11.40;97.50;;;;;;6276068;22;20016;-87
2023/04/06 10:31:23;;;;;;;22.58;14.30;;;11.50;99.80;;;;;;6277080;22;20024;-88
2023/04/06 10:34:00;;;;;;;24.83;14.48;;;11.70;99.90;;;;;;6277140;22;20088;-88
2023/04/06 10:36:31;;;;;;;25.35;15.20;;;12.10;99.60;;;;;;6276102;22;20020;-90
2023/04/06 10:39:05;;;;;;;25.52;15.20;;;12.30;98.80;;;;;;6276919;22;20018;-88
2023/04/06 10:41:41;;;;;;;24.95;14.40;;;12.50;96.30;;;;;;6276105;22;20328;-88
2023/04/06 10:44:06;;;;;;;22.95;14.98;;;13.10;96.50;;;;;;6276655;22;20439;-88
2023/04/06 10:46:33;;;;;;;24.48;14.80;;;12.90;98.50;;;;;;6274861;22;20055;-87
2023/04/06 10:49:11;;;;;;;23.52;15.75;;;13.00;98.30;;;;;;6299618;22;20051;-88
2023/04/06 10:51:40;;;;;;;24.00;16.05;;;13.00;96.70;;;;;;6278220;22;20077;-88
2023/04/06 10:54:20;;;;;;;23.73;15.90;;;13.40;98.30;;;;;;6274672;22;20074;-89
2023/04/06 10:56:48;;;;;;;23.80;15.75;;;13.60;97.50;;;;;;6275340;22;20339;-89
2023/04/06 10:59:21;;;;;;;27.38;16.23;;;13.90;98.40;;;;;;6276580;22;20347;-87
2023/04/06 11:02:05;;;;;;;25.42;16.67;;;12.80;97.30;;;;;;6275123;22;20112;-89
2023/04/06 11:04:31;;;;;;;25.42;16.95;;;13.30;95.80;;;;;;6276732;22;20458;-89
2023/04/06 11:06:57;;;;;;;24.85;16.20;;;12.70;97.50;;;;;;6274690;22;20051;-87
2023/04/06 11:09:36;;;;;;;24.67;16.48;;;12.70;96.40;;;;;;6275075;22;20631;-89
2023/04/06 11:12:43;;;;;;;22.52;15.32;;;13.00;95.50;;;;;;6277609;22;20016;-89
2023/04/06 11:15:17;;;;;;;24.25;16.55;;;13.30;94.70;;;;;;6186036;23;20028;-88
2023/04/06 11:17:49;;;;;;;24.13;16.92;;;13.70;95.60;;;;;;6188579;23;20025;-89
2023/04/06 11:20:15;;;;;;;22.42;15.77;;;14.50;95.50;;;;;;6276018;22;20033;-89
2023/04/06 11:22:53;;;;;;;27.85;16.88;;;13.50;96.30;;;;;;6277410;22;20058;-89
2023/04/06 11:25:19;;;;;;;23.08;16.67;;;14.30;94.00;;;;;;6277114;22;20020;-88
2023/04/06 11:27:47;;;;;;;24.17;16.45;;;13.10;96.10;;;;;;6274791;22;20085;-88
2023/04/06 11:30:13;;;;;;;22.52;16.13;;;12.90;96.40;;;;;;6277551;22;20020;-89
2023/04/06 11:32:44;;;;;;;24.27;16.23;;;12.90;96.40;;;;;;6277161;22;20374;-89
2023/04/06 11:35:23;;;;;;;24.23;16.35;;;12.80;95.10;;;;;;6274169;22;20443;-88
2023/04/06 11:37:51;;;;;;;23.27;16.30;;;12.80;94.70;;;;;;6284731;22;20023;-87
2023/04/06 11:40:22;;;;;;;24.75;17.55;;;12.70;95.70;;;;;;6278247;22;20012;-88
2023/04/06 11:42:57;;;;;;;26.08;16.50;;;13.00;95.90;;;;;;6274976;22;20024;-88
2023/04/06 11:45:23;;;;;;;26.67;16.45;;;13.00;95.10;;;;;;6276281;22;20015;-88
2023/04/06 11:48:00;;;;;;;25.17;17.20;;;12.80;96.00;;;;;;6279588;22;20016;-87
2023/04/06 11:50:32;;;;;;;26.05;17.42;;;13.20;94.20;;;;;;6274377;22;20015;-88
2023/04/06 11:53:00;;;;;;;24.37;17.37;;;13.30;96.00;;;;;;6274454;22;20022;-88
2023/04/06 11:55:26;;;;;;;25.45;17.52;;;14.50;96.40;;;;;;6274483;22;20296;-88
2023/04/06 11:57:52;;;;;;;25.83;17.13;;;13.50;96.10;;;;;;6274317;22;20042;-89
2023/04/06 12:00:18;;;;;;;26.23;16.90;;;14.40;96.30;;;;;;6276224;22;20020;-88
2023/04/06 12:02:50;;;;;;;23.73;17.20;;;13.50;93.70;;;;;;6276192;22;20335;-90
2023/04/06 12:05:16;;;;;;;24.23;16.85;;;13.70;95.40;;;;;;6274897;22;20439;-89
2023/04/06 12:07:45;;;;;;;25.08;17.42;;;13.80;95.50;;;;;;6278765;22;20026;-90
2023/04/06 12:10:12;;;;;;;24.63;17.02;;;13.80;95.40;;;;;;6279566;22;20049;-91
2023/04/06 12:12:40;;;;;;;24.65;17.13;;;15.00;96.20;;;;;;6278379;22;20090;-91
2023/04/06 12:15:09;;;;;;;26.92;17.83;;;13.90;95.60;;;;;;6310531;22;20029;-91
2023/04/06 12:17:40;;;;;;;26.13;17.83;;;13.80;95.50;;;;;;6329126;22;20110;-91
2023/04/06 12:20:15;;;;;;;26.05;17.40;;;13.70;92.90;;;;;;6283720;22;20312;-90
2023/04/06 12:22:53;;;;;;;;;;;;;;;;;;;;;
2023/04/06 12:25:42;;;;;;;25.58;17.38;;;13.60;92.80;;;;;;6188489;22;20013;-92
2023/04/06 12:28:08;;;;;;;26.30;18.05;;;14.80;92.80;;;;;;6280121;22;20073;-90
2023/04/06 12:30:41;;;;;;;27.98;18.20;;;14.70;95.20;;;;;;6306263;22;20081;-92
2023/04/06 12:33:12;;;;;;;25.90;18.00;;;13.70;94.00;;;;;;6279003;22;20011;-92
2023/04/06 12:35:38;;;;;;;24.83;17.42;;;14.40;94.80;;;;;;6280547;22;20016;-91
2023/04/06 12:38:12;;;;;;;27.45;17.30;;;14.70;95.20;;;;;;6320957;22;20010;-90
2023/04/06 12:40:41;;;;;;;27.20;17.23;;;14.20;93.20;;;;;;6331371;22;20015;-90
2023/04/06 12:43:07;;;;;;;28.83;17.63;;;13.70;93.50;;;;;;6311952;22;20439;-90
2023/04/06 12:45:32;;;;;;;27.10;17.45;;;14.60;94.70;;;;;;6309630;22;20053;-90
2023/04/06 12:48:01;;;;;;;26.60;17.42;;;14.70;94.20;;;;;;6279555;22;20102;-90
2023/04/06 12:50:27;;;;;;;25.52;17.08;;;13.60;93.10;;;;;;6281029;22;20057;-93